createdAt,value
2022-08-28T00:05:54.984Z,100.00
2022-08-28T00:13:28.810Z,100.00
2022-08-28T00:21:04.459Z,100.00
2022-08-28T00:28:38.285Z,100.00
2022-08-28T00:36:13.434Z,100.00
2022-08-28T00:43:49.883Z,100.00
2022-08-28T00:51:43.339Z,100.00
2022-08-28T00:59:19.642Z,100.00
2022-08-28T01:06:58.034Z,100.00
2022-08-28T01:14:34.692Z,100.00
2022-08-28T01:22:19.488Z,100.00
2022-08-28T01:29:55.321Z,100.00
2022-08-28T01:37:29.673Z,100.00
2022-08-28T01:45:05.316Z,100.00
2022-08-28T01:52:39.254Z,100.00
2022-08-28T02:00:16.671Z,100.00
2022-08-28T02:07:50.470Z,100.00
2022-08-28T02:15:26.570Z,100.00
2022-08-28T02:23:00.994Z,100.00
2022-08-28T02:30:36.558Z,100.00
2022-08-28T02:38:11.560Z,100.00
2022-08-28T02:45:48.328Z,100.00
2022-08-28T02:53:22.711Z,100.00
2022-08-28T03:00:57.977Z,100.00
2022-08-28T03:08:34.021Z,100.00
2022-08-28T03:16:09.609Z,100.00
2022-08-28T03:23:43.420Z,100.00
2022-08-28T03:31:21.195Z,100.00
2022-08-28T03:38:57.363Z,100.00
2022-08-28T03:46:33.920Z,100.00
2022-08-28T03:54:07.684Z,100.00
2022-08-28T04:01:43.175Z,100.00
2022-08-28T04:09:16.991Z,100.00
2022-08-28T04:16:52.156Z,100.00
2022-08-28T04:24:25.996Z,100.00
2022-08-28T04:32:01.330Z,100.00
2022-08-28T04:39:35.355Z,100.00
2022-08-28T04:47:10.755Z,100.00
2022-08-28T04:54:44.774Z,100.00
2022-08-28T05:02:20.032Z,100.00
2022-08-28T05:09:54.665Z,100.00
2022-08-28T05:17:32.153Z,100.00
2022-08-28T05:25:06.447Z,100.00
2022-08-28T05:32:43.124Z,100.00
2022-08-28T05:40:18.196Z,100.00
2022-08-28T05:47:53.514Z,100.00
2022-08-28T05:55:27.332Z,100.00
2022-08-28T06:03:02.630Z,100.00
2022-08-28T06:10:37.244Z,100.00
2022-08-28T06:18:14.996Z,100.00
2022-08-28T06:25:51.812Z,100.00
2022-08-28T06:33:27.178Z,100.00
2022-08-28T06:41:01.151Z,100.00
2022-08-28T06:48:36.314Z,100.00
2022-08-28T06:56:13.726Z,100.00
2022-08-28T07:04:04.054Z,100.00
2022-08-28T07:11:38.690Z,100.00
2022-08-28T07:19:14.099Z,100.00
2022-08-28T07:26:49.158Z,100.00
2022-08-28T07:34:27.042Z,100.00
2022-08-28T07:42:01.225Z,100.00
2022-08-28T07:49:36.860Z,100.00
2022-08-28T07:57:11.035Z,100.00
2022-08-28T08:04:46.180Z,100.00
2022-08-28T08:12:20.566Z,100.00
2022-08-28T08:19:55.903Z,100.00
2022-08-28T08:27:29.713Z,100.00
2022-08-28T08:35:05.255Z,100.00
2022-08-28T08:42:39.268Z,100.00
2022-08-28T08:50:24.112Z,100.00
2022-08-28T08:58:03.749Z,100.00
2022-08-28T09:05:48.471Z,100.00
2022-08-28T09:13:27.315Z,100.00
2022-08-28T09:21:02.891Z,100.00
2022-08-28T09:28:40.782Z,100.00
2022-08-28T09:36:29.522Z,100.00
2022-08-28T09:44:04.249Z,100.00
2022-08-28T09:51:39.930Z,100.00
2022-08-28T09:59:16.022Z,100.00
2022-08-28T10:06:54.779Z,100.00
2022-08-28T10:14:45.546Z,100.00
2022-08-28T10:22:34.588Z,100.00
2022-08-28T10:30:14.408Z,100.00
2022-08-28T10:38:01.326Z,100.00
2022-08-28T10:45:36.207Z,100.00
2022-08-28T10:53:16.719Z,100.00
2022-08-28T11:00:51.481Z,100.00
2022-08-28T11:08:30.786Z,100.00
2022-08-28T11:16:13.456Z,100.00
2022-08-28T11:23:52.666Z,100.00
2022-08-28T11:31:36.595Z,100.00
2022-08-28T11:39:22.218Z,100.00
2022-08-28T11:46:58.880Z,100.00
2022-08-28T11:54:45.830Z,100.00
2022-08-28T12:02:49.198Z,100.00
2022-08-28T12:10:55.007Z,100.00
2022-08-28T12:19:04.910Z,100.00
2022-08-28T12:26:46.150Z,100.00
2022-08-28T12:34:30.252Z,100.00
2022-08-28T12:42:05.843Z,100.00
2022-08-28T12:49:39.661Z,100.00
2022-08-28T12:57:18.446Z,100.00
2022-08-28T13:04:55.824Z,100.00
2022-08-28T13:12:55.245Z,100.00
2022-08-28T13:20:31.310Z,100.00
2022-08-28T13:28:14.456Z,100.00
2022-08-28T13:35:48.734Z,100.00
2022-08-28T13:43:25.505Z,100.00
2022-08-28T13:51:05.022Z,100.00
2022-08-28T13:58:42.813Z,99.27
2022-08-28T14:06:18.331Z,100.00
2022-08-28T14:13:55.318Z,93.85
2022-08-28T14:21:30.199Z,91.75
2022-08-28T14:29:07.693Z,90.18
2022-08-28T14:36:43.106Z,92.84
2022-08-28T14:44:18.710Z,89.60
2022-08-28T14:51:54.129Z,87.15
2022-08-28T14:59:32.098Z,83.33
2022-08-28T15:07:08.444Z,77.14
2022-08-28T15:14:55.011Z,77.87
2022-08-28T15:22:31.123Z,76.47
2022-08-28T15:30:07.433Z,68.98
2022-08-28T15:37:41.266Z,70.70
2022-08-28T15:45:18.231Z,67.98
2022-08-28T15:52:53.451Z,63.14
2022-08-28T16:00:28.868Z,61.87
2022-08-28T16:08:02.945Z,60.53
2022-08-28T16:15:38.043Z,57.79
2022-08-28T16:23:14.015Z,54.56
2022-08-28T16:30:49.202Z,55.03
2022-08-28T16:38:23.226Z,57.36
2022-08-28T16:45:58.425Z,57.88
2022-08-28T16:53:32.664Z,57.00
2022-08-28T17:01:08.629Z,59.09
2022-08-28T17:08:45.002Z,60.28
2022-08-28T17:16:21.774Z,60.84
2022-08-28T17:23:57.110Z,62.01
2022-08-28T17:31:32.750Z,63.28
2022-08-28T17:39:09.152Z,64.63
2022-08-28T17:46:44.376Z,66.78
2022-08-28T17:54:21.740Z,69.81
2022-08-28T18:01:57.001Z,72.17
2022-08-28T18:09:30.882Z,74.04
2022-08-28T18:17:06.260Z,76.01
2022-08-28T18:24:43.913Z,78.18
2022-08-28T18:32:19.198Z,79.88
2022-08-28T18:39:52.966Z,80.99
2022-08-28T18:47:30.102Z,82.37
2022-08-28T18:55:05.190Z,81.93
2022-08-28T19:02:41.799Z,82.65
2022-08-28T19:10:32.692Z,80.50
2022-08-28T19:18:08.639Z,79.34
2022-08-28T19:25:42.512Z,77.47
2022-08-28T19:33:17.995Z,77.12
2022-08-28T19:40:51.794Z,75.81
2022-08-28T19:48:27.121Z,76.02
2022-08-28T19:56:01.064Z,75.35
2022-08-28T20:03:37.316Z,75.47
2022-08-28T20:11:16.510Z,75.66
2022-08-28T20:18:51.755Z,75.78
2022-08-28T20:26:25.616Z,76.03
2022-08-28T20:34:03.837Z,76.35
2022-08-28T20:41:42.466Z,78.30
2022-08-28T20:49:18.099Z,79.77
2022-08-28T20:56:52.621Z,82.68
2022-08-28T21:04:30.384Z,84.49
2022-08-28T21:12:04.706Z,86.27
2022-08-28T21:19:40.715Z,88.16
2022-08-28T21:27:14.707Z,90.41
2022-08-28T21:34:54.550Z,92.08
2022-08-28T21:42:28.912Z,89.33
2022-08-28T21:50:04.152Z,88.06
2022-08-28T21:57:38.787Z,89.27
2022-08-28T22:05:14.260Z,92.86
2022-08-28T22:12:48.059Z,96.16
2022-08-28T22:20:23.246Z,98.36
2022-08-28T22:27:57.135Z,99.99
2022-08-28T22:35:32.419Z,100.00
2022-08-28T22:43:06.162Z,98.59
2022-08-28T22:50:42.229Z,99.07
2022-08-28T22:58:16.112Z,99.65
2022-08-28T23:05:51.310Z,100.00
2022-08-28T23:13:25.116Z,100.00
2022-08-28T23:21:01.499Z,100.00
2022-08-28T23:28:35.294Z,100.00
2022-08-28T23:36:11.658Z,100.00
2022-08-28T23:43:45.441Z,100.00
2022-08-28T23:51:21.921Z,98.45
2022-08-28T23:58:55.837Z,97.95
